Time;durP1;ratioP1;P1;durP2;ratioP2;P2;SDS_P1;SDS_P2;PMS_P1;PMS_P2;Temp;Humidity;BMP_temperature;BMP_pressure;BME280_temperature;BME280_humidity;BME280_pressure;Samples;Min_cycle;Max_cycle;Signal;HPM_P1;HPM_P2
2023/03/03 17:59:06;;;;;;;6.70;4.00;;;7.20;99.90;;;;;;4922016;23;20228;-74
2023/03/03 18:01:49;;;;;;;8.70;3.60;;;7.10;99.90;;;;;;4896825;29;20211;-74
2023/03/03 18:04:44;;;;;;;6.53;3.50;;;7.10;99.90;;;;;;4899219;29;20210;-76
2023/03/03 18:07:39;;;;;;;10.43;5.13;;;7.00;99.90;;;;;;4889264;29;20589;-76
2023/03/03 18:10:33;;;;;;;9.93;3.90;;;7.10;99.90;;;;;;4893994;29;20242;-74
2023/03/03 18:13:07;;;;;;;8.33;4.00;;;7.20;99.90;;;;;;4899085;29;20638;-75
2023/03/03 18:15:49;;;;;;;10.07;4.10;;;7.00;99.90;;;;;;4894716;29;20668;-75
2023/03/03 18:18:35;;;;;;;7.67;3.90;;;7.00;99.90;;;;;;4878880;29;20214;-75
2023/03/03 18:21:09;;;;;;;7.97;4.37;;;7.00;99.90;;;;;;4878825;29;20229;-75
2023/03/03 18:23:41;;;;;;;7.40;3.83;;;6.80;99.90;;;;;;4882942;29;20209;-74
2023/03/03 18:26:33;;;;;;;9.37;4.37;;;6.80;99.90;;;;;;4894605;29;20257;-76
2023/03/03 18:29:11;;;;;;;8.13;4.60;;;6.80;99.90;;;;;;4896331;29;20243;-73
2023/03/03 18:31:48;;;;;;;9.90;3.83;;;6.80;99.90;;;;;;4893441;29;20547;-73
2023/03/03 18:34:35;;;;;;;6.43;3.70;;;6.80;99.90;;;;;;4896269;29;20210;-74
2023/03/03 18:37:08;;;;;;;9.17;4.07;;;6.80;99.90;;;;;;4895559;29;20248;-73
2023/03/03 18:39:39;;;;;;;10.57;4.43;;;6.90;99.90;;;;;;4896438;29;20242;-74
2023/03/03 18:42:12;;;;;;;12.50;6.07;;;6.80;99.90;;;;;;4896583;29;20281;-73
2023/03/03 18:44:39;;;;;;;13.00;5.80;;;6.80;99.90;;;;;;4897552;29;20214;-73
2023/03/03 18:47:06;;;;;;;12.20;4.37;;;6.80;99.90;;;;;;4898215;29;20226;-73
2023/03/03 18:49:54;;;;;;;7.30;3.90;;;7.00;99.90;;;;;;4898038;29;20234;-73
2023/03/03 18:52:26;;;;;;;8.73;3.30;;;7.20;99.90;;;;;;4897917;29;20211;-73
2023/03/03 18:55:21;;;;;;;10.90;5.33;;;7.20;99.90;;;;;;4897523;29;20309;-73
2023/03/03 18:58:22;;;;;;;7.67;3.63;;;7.00;99.90;;;;;;4897538;29;20207;-75
2023/03/03 19:00:51;;;;;;;8.97;4.63;;;6.90;99.90;;;;;;4897728;29;20214;-75
2023/03/03 19:03:27;;;;;;;7.20;2.80;;;6.90;99.90;;;;;;4897931;29;20210;-72
2023/03/03 19:05:58;;;;;;;5.37;3.20;;;7.10;99.90;;;;;;4897751;29;20230;-74
2023/03/03 19:08:28;;;;;;;8.73;3.30;;;7.20;99.90;;;;;;4898457;29;20214;-72
2023/03/03 19:11:00;;;;;;;8.53;3.30;;;7.00;99.90;;;;;;4897935;29;20333;-73
2023/03/03 19:13:48;;;;;;;9.33;4.33;;;7.20;99.90;;;;;;4897776;29;20226;-74
2023/03/03 19:16:30;;;;;;;7.30;3.87;;;7.50;99.90;;;;;;4897018;29;20585;-75
2023/03/03 19:19:04;;;;;;;8.00;4.10;;;7.50;99.90;;;;;;4897029;29;20230;-74
2023/03/03 19:21:35;;;;;;;6.00;3.30;;;7.40;99.90;;;;;;4888418;29;20215;-74
2023/03/03 19:24:03;;;;;;;9.70;3.77;;;7.30;99.90;;;;;;4891675;29;20215;-74
2023/03/03 19:27:02;;;;;;;8.23;3.83;;;7.20;99.90;;;;;;4889941;29;20698;-74
2023/03/03 19:29:59;;;;;;;5.90;3.57;;;7.40;99.90;;;;;;4889908;29;20219;-74
2023/03/03 19:32:37;;;;;;;7.63;3.90;;;7.60;99.90;;;;;;4896501;29;20213;-73
2023/03/03 19:35:18;;;;;;;7.40;3.27;;;7.70;99.90;;;;;;4893627;29;20569;-74
2023/03/03 19:37:56;;;;;;;7.37;4.87;;;7.60;99.90;;;;;;4897891;29;20213;-74
2023/03/03 19:40:29;;;;;;;7.50;4.13;;;7.50;99.90;;;;;;4893233;29;20213;-74
2023/03/03 19:43:08;;;;;;;11.30;4.23;;;7.60;99.90;;;;;;4889886;29;20242;-73
2023/03/03 19:45:47;;;;;;;5.67;3.53;;;7.80;99.90;;;;;;4890337;29;20666;-74
2023/03/03 19:48:23;;;;;;;6.13;3.40;;;7.80;99.90;;;;;;4898213;29;20574;-74
2023/03/03 19:50:57;;;;;;;6.30;3.60;;;7.70;99.90;;;;;;4894862;29;20244;-73
2023/03/03 19:53:34;;;;;;;10.37;3.87;;;7.60;99.90;;;;;;4887775;29;20669;-73
2023/03/03 19:56:24;;;;;;;5.10;2.80;;;7.50;99.90;;;;;;4900656;29;20234;-74
2023/03/03 19:59:02;;;;;;;4.63;2.87;;;7.60;99.90;;;;;;4897779;29;20886;-74
2023/03/03 20:01:42;;;;;;;6.57;2.67;;;7.80;99.90;;;;;;4898151;29;20217;-73
2023/03/03 20:04:43;;;;;;;4.10;2.60;;;7.80;99.90;;;;;;4898523;29;20206;-74
2023/03/03 20:07:22;;;;;;;6.47;2.70;;;7.80;99.90;;;;;;4892228;29;20749;-73
2023/03/03 20:09:56;;;;;;;4.13;2.23;;;7.90;99.90;;;;;;4893733;29;20206;-73
2023/03/03 20:12:33;;;;;;;3.73;2.37;;;7.90;99.90;;;;;;4894451;29;20229;-74
2023/03/03 20:15:08;;;;;;;3.70;2.40;;;7.90;99.90;;;;;;4896014;29;20210;-73
2023/03/03 20:17:57;;;;;;;6.70;2.23;;;7.90;99.90;;;;;;4891620;29;20230;-74
2023/03/03 20:21:01;;;;;;;4.03;2.40;;;7.80;99.90;;;;;;4896992;29;20219;-73
2023/03/03 20:23:35;;;;;;;5.17;2.90;;;7.80;99.90;;;;;;4892661;29;20728;-74
2023/03/03 20:26:12;;;;;;;6.97;2.73;;;7.80;99.90;;;;;;4894668;29;20756;-74
2023/03/03 20:29:11;;;;;;;6.57;2.80;;;7.60;99.90;;;;;;4892460;29;20206;-74
2023/03/03 20:31:45;;;;;;;4.03;2.57;;;7.60;99.90;;;;;;4880009;29;20235;-73
2023/03/03 20:34:19;;;;;;;5.20;2.80;;;7.70;99.90;;;;;;4892269;29;20229;-73
2023/03/03 20:36:59;;;;;;;6.60;2.77;;;7.80;99.90;;;;;;4891544;29;20241;-73
2023/03/03 20:39:38;;;;;;;5.07;2.80;;;7.70;99.90;;;;;;4896932;29;20218;-74
2023/03/03 20:42:15;;;;;;;5.07;3.00;;;7.80;99.90;;;;;;4898690;29;20221;-73
2023/03/03 20:45:02;;;;;;;4.40;2.80;;;7.70;99.90;;;;;;4894944;29;20397;-73
2023/03/03 20:47:42;;;;;;;11.80;3.03;;;7.60;99.90;;;;;;4896113;29;20242;-73
2023/03/03 20:50:21;;;;;;;6.87;2.87;;;7.50;99.90;;;;;;4893677;29;20238;-73
2023/03/03 20:53:03;;;;;;;5.67;3.17;;;7.50;99.90;;;;;;4897127;29;20215;-74
2023/03/03 20:55:41;;;;;;;5.13;3.10;;;7.40;99.90;;;;;;4891522;29;20543;-73
2023/03/03 20:58:20;;;;;;;6.30;3.00;;;7.50;99.90;;;;;;4894104;29;20215;-73
2023/03/03 21:00:52;;;;;;;6.00;3.37;;;7.60;99.90;;;;;;4892431;29;20206;-73
2023/03/03 21:03:30;;;;;;;5.30;3.17;;;7.70;99.90;;;;;;4892652;29;20215;-73
2023/03/03 21:05:59;;;;;;;5.70;3.27;;;7.70;99.90;;;;;;4897600;29;20236;-72
2023/03/03 21:08:48;;;;;;;9.30;3.30;;;7.70;99.90;;;;;;4891630;29;20215;-72
2023/03/03 21:11:16;;;;;;;4.73;3.63;;;7.80;99.90;;;;;;4890881;29;20245;-73
2023/03/03 21:13:46;;;;;;;4.40;3.27;;;7.70;99.90;;;;;;4890883;29;20214;-73
2023/03/03 21:16:29;;;;;;;6.73;3.60;;;7.70;99.90;;;;;;4897873;29;20250;-73
2023/03/03 21:18:57;;;;;;;5.33;3.40;;;7.50;99.90;;;;;;4897505;29;20218;-73
2023/03/03 21:21:25;;;;;;;6.37;3.47;;;7.50;99.90;;;;;;4896382;29;20219;-73
2023/03/03 21:23:52;;;;;;;5.13;3.70;;;7.50;99.90;;;;;;4891858;29;20321;-72
2023/03/03 21:26:47;;;;;;;4.80;3.57;;;7.40;99.90;;;;;;4892523;29;20255;-73
2023/03/03 21:29:25;;;;;;;4.63;3.07;;;7.30;99.90;;;;;;4893443;29;20216;-73
2023/03/03 21:31:54;;;;;;;7.13;3.43;;;7.40;99.90;;;;;;4891393;29;20744;-73
2023/03/03 21:34:25;;;;;;;5.83;3.40;;;7.40;99.90;;;;;;4899297;29;20229;-73
2023/03/03 21:36:52;;;;;;;7.00;3.60;;;7.40;99.90;;;;;;4890532;29;20317;-73
2023/03/03 21:39:29;;;;;;;6.60;4.07;;;7.40;99.90;;;;;;4893807;29;20210;-73
2023/03/03 21:42:00;;;;;;;5.33;3.80;;;7.50;99.90;;;;;;4888903;29;20221;-74
2023/03/03 21:44:40;;;;;;;6.83;4.70;;;7.40;99.90;;;;;;4894114;29;20213;-74
2023/03/03 21:47:08;;;;;;;7.40;4.07;;;7.30;99.90;;;;;;4882344;29;20231;-74
2023/03/03 21:49:39;;;;;;;7.73;4.77;;;7.20;99.90;;;;;;4895543;29;20229;-74
2023/03/03 21:52:06;;;;;;;8.37;4.47;;;7.20;99.90;;;;;;4893104;29;20246;-73
2023/03/03 21:54:33;;;;;;;6.83;4.23;;;7.30;99.90;;;;;;4896289;29;20211;-73
2023/03/03 21:57:00;;;;;;;7.63;4.70;;;7.30;99.90;;;;;;4897828;29;20231;-74
2023/03/03 21:59:27;;;;;;;9.67;4.77;;;7.30;99.90;;;;;;4889802;29;20309;-73
2023/03/03 22:01:55;;;;;;;6.37;4.33;;;7.30;99.90;;;;;;4895454;29;20242;-73
2023/03/03 22:04:22;;;;;;;8.67;4.87;;;7.30;99.90;;;;;;4895059;29;20334;-74
2023/03/03 22:06:49;;;;;;;6.70;4.90;;;7.30;99.90;;;;;;4898435;29;20571;-73
2023/03/03 22:09:16;;;;;;;7.63;4.63;;;7.20;99.90;;;;;;4892001;29;20294;-74
2023/03/03 22:11:43;;;;;;;7.17;4.63;;;7.20;99.90;;;;;;4893977;29;20246;-73
2023/03/03 22:14:10;;;;;;;10.53;5.60;;;7.30;99.90;;;;;;4891021;29;20211;-73
2023/03/03 22:16:36;;;;;;;7.27;4.53;;;7.30;99.90;;;;;;4893669;29;20240;-73
2023/03/03 22:19:07;;;;;;;7.43;4.80;;;7.30;99.90;;;;;;4888233;29;20215;-73
2023/03/03 22:21:35;;;;;;;9.43;5.07;;;7.20;99.90;;;;;;4893672;29;20207;-73
2023/03/03 22:24:02;;;;;;;8.33;4.77;;;7.10;99.90;;;;;;4893084;29;20214;-73
2023/03/03 22:26:29;;;;;;;9.73;5.20;;;7.10;99.90;;;;;;4896190;29;20685;-73
2023/03/03 22:28:56;;;;;;;8.87;5.17;;;7.10;99.90;;;;;;4891568;29;20543;-73
2023/03/03 22:31:23;;;;;;;7.07;5.20;;;7.10;99.90;;;;;;4895025;29;20249;-73
2023/03/03 22:33:50;;;;;;;7.60;4.57;;;7.00;99.90;;;;;;4896924;29;20214;-73
2023/03/03 22:36:18;;;;;;;7.47;5.37;;;7.00;99.90;;;;;;4892477;29;20238;-74
2023/03/03 22:38:45;;;;;;;7.57;5.10;;;7.00;99.90;;;;;;4889173;29;20266;-73
2023/03/03 22:41:12;;;;;;;6.33;4.77;;;7.00;99.90;;;;;;4892079;29;20214;-74
2023/03/03 22:43:40;;;;;;;8.17;5.10;;;7.00;99.90;;;;;;4893827;29;20636;-72
2023/03/03 22:46:07;;;;;;;11.30;4.77;;;7.00;99.90;;;;;;4891773;29;20241;-74
2023/03/03 22:48:35;;;;;;;6.57;4.43;;;6.90;99.90;;;;;;4892219;29;20220;-73
2023/03/03 22:51:01;;;;;;;7.27;4.97;;;6.90;99.90;;;;;;4892313;29;20226;-73
2023/03/03 22:53:30;;;;;;;6.50;4.37;;;6.80;99.90;;;;;;4890791;29;20221;-73
2023/03/03 22:55:56;;;;;;;6.83;4.23;;;6.80;99.90;;;;;;4891853;29;20245;-73
2023/03/03 22:58:25;;;;;;;10.97;4.67;;;6.80;99.90;;;;;;4897204;29;20210;-74
2023/03/03 23:00:52;;;;;;;6.37;3.90;;;6.80;99.90;;;;;;4892821;29;20282;-73
2023/03/03 23:03:20;;;;;;;5.30;3.93;;;6.80;99.90;;;;;;4896388;29;20206;-74
2023/03/03 23:05:48;;;;;;;6.03;3.70;;;6.80;99.90;;;;;;4885779;29;20281;-73
2023/03/03 23:08:17;;;;;;;6.70;3.90;;;6.80;99.90;;;;;;4894610;29;20326;-73
2023/03/03 23:10:45;;;;;;;6.37;3.77;;;6.90;99.90;;;;;;4896698;29;20642;-73
2023/03/03 23:13:12;;;;;;;7.40;3.70;;;6.90;99.90;;;;;;4893572;29;20218;-74
2023/03/03 23:15:39;;;;;;;5.77;3.83;;;6.90;99.90;;;;;;4886963;29;20230;-74
2023/03/03 23:18:06;;;;;;;6.33;3.53;;;7.00;99.90;;;;;;4893770;29;20574;-73
2023/03/03 23:20:33;;;;;;;7.23;3.37;;;7.00;99.90;;;;;;4886798;29;20210;-73
2023/03/03 23:22:59;;;;;;;6.27;3.33;;;7.10;99.90;;;;;;4891572;29;20211;-73
2023/03/03 23:25:27;;;;;;;5.53;3.87;;;7.00;99.90;;;;;;4897499;29;20211;-73
2023/03/03 23:27:56;;;;;;;4.40;3.20;;;7.00;99.90;;;;;;4891411;29;20551;-73
2023/03/03 23:30:23;;;;;;;6.93;3.93;;;7.00;99.90;;;;;;4897316;29;20214;-73
2023/03/03 23:32:50;;;;;;;5.40;3.33;;;7.00;99.90;;;;;;4890966;29;20238;-74
